Time;durP1;ratioP1;P1;durP2;ratioP2;P2;SDS_P1;SDS_P2;PMS_P1;PMS_P2;Temp;Humidity;BMP_temperature;BMP_pressure;BME280_temperature;BME280_humidity;BME280_pressure;Samples;Min_cycle;Max_cycle;Signal;HPM_P1;HPM_P2
2022/09/12 00:01:48;0.00;0.00;0.62;0.00;0.00;0.62;5.63;5.00;;;26.10;37.30;;;;;;2261448;61;20413;-66
2022/09/12 00:04:33;0.00;0.00;0.62;0.00;0.00;0.62;6.60;5.93;;;26.10;36.60;;;;;;2261237;61;20729;-64
2022/09/12 00:07:17;0.00;0.00;0.62;0.00;0.00;0.62;6.60;5.90;;;26.10;36.40;;;;;;2261428;61;20358;-63
2022/09/12 00:10:03;0.00;0.00;0.62;0.00;0.00;0.62;7.60;6.80;;;26.00;36.00;;;;;;2262542;61;20473;-62
2022/09/12 00:12:48;0.00;0.00;0.62;0.00;0.00;0.62;8.00;6.53;;;26.00;35.90;;;;;;2260646;61;20622;-64
2022/09/12 00:15:38;0.00;0.00;0.62;0.00;0.00;0.62;6.93;6.30;;;25.90;35.70;;;;;;2261225;61;20354;-64
2022/09/12 00:18:25;0.00;0.00;0.62;0.00;0.00;0.62;6.60;6.00;;;25.90;35.70;;;;;;2261724;61;20368;-65
2022/09/12 00:21:11;0.00;0.00;0.62;0.00;0.00;0.62;9.40;7.43;;;25.80;35.50;;;;;;2501972;53;20353;-65
2022/09/12 00:23:55;0.00;0.00;0.62;0.00;0.00;0.62;6.80;5.83;;;25.80;36.20;;;;;;2265274;61;20612;-66
2022/09/12 00:26:40;0.00;0.00;0.62;0.00;0.00;0.62;8.47;6.50;;;25.70;35.40;;;;;;2265301;61;20430;-64
2022/09/12 00:29:25;0.00;0.00;0.62;0.00;0.00;0.62;6.67;5.97;;;25.60;35.40;;;;;;2263695;61;20365;-63
2022/09/12 00:32:10;0.00;0.00;0.62;0.00;0.00;0.62;5.90;5.33;;;25.50;35.50;;;;;;2261253;61;20377;-63
2022/09/12 00:34:56;0.00;0.00;0.62;0.00;0.00;0.62;7.10;6.40;;;25.50;35.70;;;;;;2260621;61;20361;-65
2022/09/12 00:37:41;0.00;0.00;0.62;0.00;0.00;0.62;6.13;5.53;;;25.40;35.70;;;;;;2261258;61;20405;-65
2022/09/12 00:40:27;0.00;0.00;0.62;0.00;0.00;0.62;7.00;5.60;;;25.40;35.80;;;;;;2261317;61;20401;-68
2022/09/12 00:43:14;0.00;0.00;0.62;0.00;0.00;0.62;8.90;5.73;;;25.30;35.80;;;;;;2260837;61;20589;-65
2022/09/12 00:46:04;0.00;0.00;0.62;0.00;0.00;0.62;5.90;5.37;;;25.20;35.90;;;;;;2260853;61;20369;-66
2022/09/12 00:48:54;0.00;0.00;0.62;0.00;0.00;0.62;6.83;5.63;;;25.20;35.90;;;;;;2261049;61;20718;-64
2022/09/12 00:51:44;0.00;0.00;0.62;0.00;0.00;0.62;5.70;5.10;;;25.20;36.70;;;;;;2261278;61;20575;-66
2022/09/12 00:54:35;0.00;0.00;0.62;0.00;0.00;0.62;5.27;4.30;;;25.20;36.20;;;;;;2261190;61;20362;-66
2022/09/12 00:57:25;0.00;0.00;0.62;0.00;0.00;0.62;5.57;5.07;;;25.10;36.20;;;;;;2260625;61;20377;-65
2022/09/12 01:00:14;0.00;0.00;0.62;0.00;0.00;0.62;6.63;5.00;;;25.10;36.20;;;;;;2260887;61;20378;-66
2022/09/12 01:03:04;0.00;0.00;0.62;0.00;0.00;0.62;7.10;6.03;;;25.10;36.10;;;;;;2261399;61;20386;-65
2022/09/12 01:05:57;0.00;0.00;0.62;0.00;0.00;0.62;6.90;5.40;;;25.10;36.10;;;;;;2260948;61;20357;-67
2022/09/12 01:08:46;0.00;0.00;0.62;0.00;0.00;0.62;6.23;5.27;;;25.10;36.10;;;;;;2261651;61;20574;-67
2022/09/12 01:11:35;0.00;0.00;0.62;0.00;0.00;0.62;5.70;5.20;;;25.10;36.20;;;;;;2261602;61;20376;-68
2022/09/12 01:14:20;0.00;0.00;0.62;0.00;0.00;0.62;5.70;5.10;;;25.10;36.20;;;;;;2262219;61;20598;-64
2022/09/12 01:17:05;0.00;0.00;0.62;0.00;0.00;0.62;7.33;5.47;;;25.00;36.10;;;;;;2262104;61;20425;-70
2022/09/12 01:20:34;0.00;0.00;0.62;0.00;0.00;0.62;6.50;5.00;;;25.00;36.10;;;;;;2261304;61;20405;-68
2022/09/12 01:24:16;0.00;0.00;0.62;0.00;0.00;0.62;5.07;4.50;;;25.00;36.00;;;;;;2261782;61;20404;-64
2022/09/12 01:27:49;0.00;0.00;0.62;0.00;0.00;0.62;5.97;5.33;;;25.00;36.10;;;;;;2261196;61;20358;-68
2022/09/12 01:30:48;0.00;0.00;0.62;0.00;0.00;0.62;5.90;5.10;;;25.00;36.20;;;;;;2264429;61;20384;-68
2022/09/12 01:34:02;0.00;0.00;0.62;0.00;0.00;0.62;6.07;5.20;;;24.90;36.20;;;;;;2265734;61;20476;-66
2022/09/12 01:36:59;0.00;0.00;0.62;0.00;0.00;0.62;6.67;5.40;;;24.90;36.20;;;;;;2266042;61;20380;-64
2022/09/12 01:39:53;0.00;0.00;0.62;0.00;0.00;0.62;6.50;5.20;;;24.90;36.10;;;;;;2264163;61;20378;-69
2022/09/12 01:42:50;0.00;0.00;0.62;0.00;0.00;0.62;6.07;5.33;;;24.90;36.00;;;;;;2261774;61;20420;-64
2022/09/12 01:45:45;0.00;0.00;0.62;0.00;0.00;0.62;6.03;5.10;;;24.80;36.00;;;;;;2261953;61;20365;-68
2022/09/12 01:48:35;0.00;0.00;0.62;0.00;0.00;0.62;5.53;4.40;;;24.80;36.10;;;;;;2261880;61;20440;-67
2022/09/12 01:51:26;0.00;0.00;0.62;0.00;0.00;0.62;5.40;4.53;;;24.80;36.10;;;;;;2262214;61;20363;-67
2022/09/12 01:54:19;0.00;0.00;0.62;0.00;0.00;0.62;7.40;3.97;;;24.70;36.10;;;;;;2261759;61;20777;-67
2022/09/12 01:57:17;0.00;0.00;0.62;0.00;0.00;0.62;5.53;4.30;;;24.80;36.30;;;;;;2261213;61;20377;-65
2022/09/12 02:00:09;0.00;0.00;0.62;0.00;0.00;0.62;4.60;4.13;;;24.80;36.40;;;;;;2261620;61;20413;-68
2022/09/12 02:03:08;0.00;0.00;0.62;0.00;0.00;0.62;4.40;4.00;;;24.80;36.40;;;;;;2261663;61;20429;-67
2022/09/12 02:05:58;0.00;0.00;0.62;0.00;0.00;0.62;4.93;4.43;;;24.80;36.40;;;;;;2261469;61;20370;-66
2022/09/12 02:08:48;0.00;0.00;0.62;0.00;0.00;0.62;4.00;3.60;;;24.90;36.50;;;;;;2261629;61;20366;-64
2022/09/12 02:11:37;0.00;0.00;0.62;0.00;0.00;0.62;4.97;4.50;;;24.90;36.50;;;;;;2260994;61;20404;-65
2022/09/12 02:14:27;0.00;0.00;0.62;0.00;0.00;0.62;4.53;4.13;;;24.90;36.50;;;;;;2261585;61;20482;-65
2022/09/12 02:17:18;0.00;0.00;0.62;0.00;0.00;0.62;5.53;4.90;;;24.90;36.40;;;;;;2261619;61;20435;-68
2022/09/12 02:20:11;0.00;0.00;0.62;0.00;0.00;0.62;5.97;5.10;;;24.90;36.30;;;;;;2413029;45;20365;-64
2022/09/12 02:22:57;0.00;0.00;0.62;0.00;0.00;0.62;6.50;4.80;;;24.90;36.20;;;;;;2261718;61;20385;-67
2022/09/12 02:25:47;0.00;0.00;0.62;0.00;0.00;0.62;4.67;4.27;;;24.90;36.00;;;;;;2261481;61;20361;-65
2022/09/12 02:28:37;0.00;0.00;0.62;0.00;0.00;0.62;4.13;3.73;;;24.90;36.00;;;;;;2261953;61;20398;-67
2022/09/12 02:31:28;0.00;0.00;0.62;0.00;0.00;0.62;4.10;3.70;;;24.90;36.10;;;;;;2257870;61;20639;-66
2022/09/12 02:34:32;0.00;0.00;0.62;0.00;0.00;0.62;4.30;3.90;;;24.90;36.20;;;;;;2257149;61;20584;-65
2022/09/12 02:37:24;0.00;0.00;0.62;0.00;0.00;0.62;4.50;4.10;;;24.90;36.20;;;;;;2257567;61;20421;-65
2022/09/12 02:40:10;0.00;0.00;0.62;0.00;0.00;0.62;4.17;3.47;;;24.90;36.20;;;;;;2262455;61;20381;-65
2022/09/12 02:42:55;0.00;0.00;0.62;0.00;0.00;0.62;4.77;4.27;;;24.90;36.20;;;;;;2265251;61;20384;-64
2022/09/12 02:45:40;0.00;0.00;0.62;0.00;0.00;0.62;4.40;3.93;;;24.90;36.20;;;;;;2265581;61;20361;-66
2022/09/12 02:48:30;0.00;0.00;0.62;0.00;0.00;0.62;5.13;4.17;;;24.90;36.10;;;;;;2265036;61;20449;-66
2022/09/12 02:51:16;0.00;0.00;0.62;0.00;0.00;0.62;6.13;5.53;;;24.90;36.10;;;;;;2584891;45;20582;-64
2022/09/12 02:54:05;0.00;0.00;0.62;0.00;0.00;0.62;6.80;5.40;;;24.90;36.00;;;;;;2261657;61;20398;-66
2022/09/12 02:56:50;0.00;0.00;0.62;0.00;0.00;0.62;5.90;5.03;;;24.80;35.70;;;;;;2261402;61;20482;-66
2022/09/12 02:59:34;0.00;0.00;0.62;0.00;0.00;0.62;5.73;5.23;;;24.80;35.70;;;;;;2261305;61;20421;-69
2022/09/12 03:02:31;0.00;0.00;0.62;0.00;0.00;0.62;6.70;6.10;;;24.80;35.60;;;;;;2261240;61;20614;-67
2022/09/12 03:05:23;0.00;0.00;0.62;0.00;0.00;0.62;5.93;5.40;;;24.70;35.40;;;;;;2262106;61;20425;-67
2022/09/12 03:08:49;0.00;0.00;0.62;0.00;0.00;0.62;8.50;6.53;;;24.70;35.40;;;;;;2261899;61;20714;-67
2022/09/12 03:12:01;0.00;0.00;0.62;0.00;0.00;0.62;7.73;6.93;;;24.60;35.20;;;;;;2256253;61;20402;-64
2022/09/12 03:15:15;0.00;0.00;0.62;0.00;0.00;0.62;5.90;5.33;;;24.50;35.20;;;;;;2261767;61;20362;-68
2022/09/12 03:18:23;0.00;0.00;0.62;0.00;0.00;0.62;6.10;5.40;;;24.40;35.20;;;;;;2261874;61;20425;-66
2022/09/12 03:21:18;0.00;0.00;0.62;0.00;0.00;0.62;6.40;5.77;;;24.30;35.30;;;;;;2499659;53;20358;-65
2022/09/12 03:24:12;0.00;0.00;0.62;0.00;0.00;0.62;6.63;5.33;;;24.20;35.40;;;;;;2263497;61;20357;-66
2022/09/12 03:27:08;0.00;0.00;0.62;0.00;0.00;0.62;5.90;5.30;;;24.10;35.50;;;;;;2263710;61;20648;-68
2022/09/12 03:29:54;0.00;0.00;0.62;0.00;0.00;0.62;7.53;5.87;;;24.10;35.60;;;;;;2262628;61;20723;-67
2022/09/12 03:32:43;0.00;0.00;0.62;0.00;0.00;0.62;8.93;5.23;;;24.00;35.60;;;;;;2261043;61;20435;-67
2022/09/12 03:35:29;0.00;0.00;0.62;0.00;0.00;0.62;8.20;5.50;;;24.00;35.60;;;;;;2261466;61;20426;-64
2022/09/12 03:38:14;0.00;0.00;0.62;0.00;0.00;0.62;6.70;5.23;;;23.90;35.70;;;;;;2261689;61;20535;-66
2022/09/12 03:41:00;0.00;0.00;0.62;0.00;0.00;0.62;7.30;5.30;;;23.90;36.50;;;;;;2492271;53;20820;-67
2022/09/12 03:43:46;0.00;0.00;0.62;0.00;0.00;0.62;7.87;4.73;;;23.90;35.90;;;;;;2257401;61;20375;-63
2022/09/12 03:46:31;0.00;0.00;0.62;0.00;0.00;0.62;6.23;5.07;;;23.90;35.90;;;;;;2262602;61;20730;-66
2022/09/12 03:49:16;0.00;0.00;0.62;0.00;0.00;0.62;8.13;5.10;;;23.90;36.30;;;;;;2259727;61;20372;-65
2022/09/12 03:52:01;0.00;0.00;0.62;0.00;0.00;0.62;6.73;5.57;;;23.80;36.00;;;;;;2265423;61;20772;-64
2022/09/12 03:54:46;0.00;0.00;0.62;0.00;0.00;0.62;8.50;5.50;;;23.80;36.00;;;;;;2264742;61;20433;-66
2022/09/12 03:57:30;0.00;0.00;0.62;0.00;0.00;0.62;5.73;5.13;;;23.80;36.00;;;;;;2265410;61;20381;-66
2022/09/12 04:00:17;0.00;0.00;0.62;0.00;0.00;0.62;7.93;4.97;;;23.80;36.00;;;;;;2262456;61;20366;-69
2022/09/12 04:03:02;0.00;0.00;0.62;0.00;0.00;0.62;6.33;5.20;;;23.80;36.00;;;;;;2260989;61;20611;-67
2022/09/12 04:05:47;0.00;0.00;0.62;0.00;0.00;0.62;6.20;5.60;;;23.80;36.00;;;;;;2261403;61;20362;-64
2022/09/12 04:08:32;0.00;0.00;0.62;0.00;0.00;0.62;5.70;4.57;;;23.80;35.90;;;;;;2261039;61;20430;-67
2022/09/12 04:11:20;0.00;0.00;0.62;0.00;0.00;0.62;8.77;5.23;;;23.80;36.00;;;;;;2306498;53;20413;-64
2022/09/12 04:14:04;0.00;0.00;0.62;0.00;0.00;0.62;7.47;4.53;;;23.80;36.00;;;;;;2261129;61;20576;-66
2022/09/12 04:16:50;0.00;0.00;0.62;0.00;0.00;0.62;6.50;4.60;;;23.70;35.90;;;;;;2261045;61;20378;-66
2022/09/12 04:19:35;0.00;0.00;0.62;0.00;0.00;0.62;6.43;5.63;;;23.70;36.00;;;;;;2260979;61;20400;-62
2022/09/12 04:22:20;0.00;0.00;0.62;0.00;0.00;0.62;7.17;5.77;;;23.70;35.90;;;;;;2261670;61;20407;-67
2022/09/12 04:25:06;0.00;0.00;0.62;0.00;0.00;0.62;5.97;5.27;;;23.70;35.80;;;;;;2260750;61;20523;-67
2022/09/12 04:27:51;0.00;0.00;0.62;0.00;0.00;0.62;4.83;4.03;;;23.60;35.80;;;;;;2261249;61;20362;-66
2022/09/12 04:30:36;0.00;0.00;0.62;0.00;0.00;0.62;4.37;3.97;;;23.60;36.00;;;;;;2261136;61;20450;-68
2022/09/12 04:33:22;0.00;0.00;0.62;0.00;0.00;0.62;6.10;4.93;;;23.60;36.00;;;;;;2261150;61;20413;-68
2022/09/12 04:36:13;0.00;0.00;0.62;0.00;0.00;0.62;5.70;4.70;;;23.60;36.00;;;;;;2261221;61;20432;-65
2022/09/12 04:39:00;0.00;0.00;0.62;0.00;0.00;0.62;6.40;4.80;;;23.60;36.00;;;;;;2260475;61;20574;-68
2022/09/12 04:41:45;0.00;0.00;0.62;0.00;0.00;0.62;4.70;4.23;;;23.60;36.00;;;;;;2261568;61;20409;-68
2022/09/12 04:44:30;0.00;0.00;0.62;0.00;0.00;0.62;6.33;4.47;;;23.60;36.00;;;;;;2262519;61;20702;-66
2022/09/12 04:47:15;0.00;0.00;0.62;0.00;0.00;0.62;6.10;4.57;;;23.60;36.00;;;;;;2261616;61;20369;-66
2022/09/12 04:50:02;0.00;0.00;0.62;0.00;0.00;0.62;4.97;4.30;;;23.60;36.00;;;;;;2261651;61;20373;-65
2022/09/12 04:52:49;0.00;0.00;0.62;0.00;0.00;0.62;5.30;4.53;;;23.60;36.00;;;;;;2261869;61;20378;-67
2022/09/12 04:55:34;0.00;0.00;0.62;0.00;0.00;0.62;5.77;4.73;;;23.70;36.10;;;;;;2261736;61;20408;-65
2022/09/12 04:58:19;0.00;0.00;0.62;0.00;0.00;0.62;5.30;4.80;;;23.70;36.00;;;;;;2262180;61;20453;-64
2022/09/12 05:01:06;0.00;0.00;0.62;0.00;0.00;0.62;5.00;4.40;;;23.70;36.00;;;;;;2497862;53;20404;-68
2022/09/12 05:03:51;0.00;0.00;0.62;0.00;0.00;0.62;4.50;3.63;;;23.70;36.00;;;;;;2262255;61;20389;-68
2022/09/12 05:06:39;0.00;0.00;0.62;0.00;0.00;0.62;5.90;4.50;;;23.70;36.10;;;;;;2262900;61;20394;-66
2022/09/12 05:09:24;0.00;0.00;0.62;0.00;0.00;0.62;8.77;6.23;;;23.70;36.00;;;;;;2261069;61;20365;-65
2022/09/12 05:12:10;0.00;0.00;0.62;0.00;0.00;0.62;6.57;5.63;;;23.70;35.90;;;;;;2423049;53;20394;-65
2022/09/12 05:14:55;0.00;0.00;0.62;0.00;0.00;0.62;5.83;5.10;;;23.70;35.90;;;;;;2257713;61;20390;-65
2022/09/12 05:17:40;0.00;0.00;0.62;0.00;0.00;0.62;6.80;5.23;;;23.60;35.80;;;;;;2258141;61;20416;-66
2022/09/12 05:20:25;0.00;0.00;0.62;0.00;0.00;0.62;5.73;4.70;;;23.60;35.80;;;;;;2261666;61;20393;-66
2022/09/12 05:23:11;0.00;0.00;0.62;0.00;0.00;0.62;6.47;5.17;;;23.60;35.90;;;;;;2261627;61;20389;-65
2022/09/12 05:25:58;0.00;0.00;0.62;0.00;0.00;0.62;9.50;4.10;;;23.60;35.90;;;;;;2262255;61;20357;-68
2022/09/12 05:28:43;0.00;0.00;0.62;0.00;0.00;0.62;4.77;3.57;;;23.70;36.00;;;;;;2262221;61;20377;-67
2022/09/12 05:31:28;0.00;0.00;0.62;0.00;0.00;0.62;4.80;4.00;;;23.70;36.00;;;;;;2261019;61;20400;-66
2022/09/12 05:34:14;0.00;0.00;0.62;0.00;0.00;0.62;12.73;5.60;;;23.70;36.10;;;;;;2262004;61;20397;-65
2022/09/12 05:36:59;0.00;0.00;0.62;0.00;0.00;0.62;7.43;5.10;;;23.70;36.10;;;;;;2261867;61;20745;-67
2022/09/12 05:39:45;0.00;0.00;0.62;0.00;0.00;0.62;5.77;4.60;;;23.80;36.10;;;;;;2261793;61;20357;-66
2022/09/12 05:42:29;0.00;0.00;0.62;0.00;0.00;0.62;4.70;4.03;;;23.80;36.10;;;;;;2261852;61;20387;-63
2022/09/12 05:45:14;0.00;0.00;0.62;0.00;0.00;0.62;5.30;4.67;;;23.80;36.10;;;;;;2261544;61;20474;-66
2022/09/12 05:48:01;0.00;0.00;0.62;0.00;0.00;0.62;6.80;4.27;;;23.80;36.10;;;;;;2262092;61;20382;-70
2022/09/12 05:50:46;0.00;0.00;0.62;0.00;0.00;0.62;7.03;5.90;;;23.80;36.10;;;;;;2261771;61;20365;-66
2022/09/12 05:53:31;0.00;0.00;0.62;0.00;0.00;0.62;9.20;6.63;;;23.80;36.00;;;;;;2261006;61;20377;-65
2022/09/12 05:56:19;0.00;0.00;0.62;0.00;0.00;0.62;7.77;6.97;;;23.80;36.00;;;;;;2261768;61;20577;-67
2022/09/12 05:59:07;0.00;0.00;0.62;0.00;0.00;0.62;9.07;5.67;;;23.80;35.90;;;;;;2261458;61;20369;-65
2022/09/12 06:01:51;0.00;0.00;0.62;0.00;0.00;0.62;8.20;6.40;;;23.80;36.00;;;;;;2261654;61;20378;-66
2022/09/12 06:04:36;0.00;0.00;0.62;0.00;0.00;0.62;7.40;6.60;;;23.80;36.00;;;;;;2492925;53;20354;-66
2022/09/12 06:07:21;0.00;0.00;0.62;0.00;0.00;0.62;9.20;7.57;;;23.70;35.90;;;;;;2257458;61;20419;-67
2022/09/12 06:10:08;0.00;0.00;0.62;0.00;0.00;0.62;11.17;8.60;;;23.70;36.00;;;;;;2259860;61;20381;-64
2022/09/12 06:12:54;0.00;0.00;0.62;0.00;0.00;0.62;9.60;8.10;;;23.70;36.00;;;;;;2261693;61;20398;-65
2022/09/12 06:15:39;0.00;0.00;0.62;0.00;0.00;0.62;9.00;8.07;;;23.60;36.00;;;;;;2261143;61;20359;-66
2022/09/12 06:18:23;0.00;0.00;0.62;0.00;0.00;0.62;10.70;7.57;;;23.50;36.00;;;;;;2261770;61;20738;-67
2022/09/12 06:21:11;0.00;0.00;0.62;0.00;0.00;0.62;9.57;7.50;;;23.50;36.70;;;;;;2493154;53;20370;-64
2022/09/12 06:23:57;0.00;0.00;0.62;0.00;0.00;0.62;12.03;8.03;;;23.40;36.10;;;;;;2257557;61;20406;-65
2022/09/12 06:26:42;0.00;0.00;0.62;0.00;0.00;0.62;10.00;8.13;;;23.40;36.30;;;;;;2257573;61;20422;-69
2022/09/12 06:29:31;0.00;0.00;0.62;0.00;0.00;0.62;10.80;7.37;;;23.30;36.30;;;;;;2258847;61;20366;-64
2022/09/12 06:32:16;0.00;0.00;0.62;0.00;0.00;0.62;13.07;7.83;;;23.20;36.40;;;;;;2261706;61;20466;-66
2022/09/12 06:35:02;0.00;0.00;0.62;0.00;0.00;0.62;10.43;8.63;;;23.20;36.60;;;;;;2261524;61;20782;-64
2022/09/12 06:37:47;0.00;0.00;0.62;0.00;0.00;0.62;12.50;6.60;;;23.10;36.60;;;;;;2261090;61;20451;-64
2022/09/12 06:40:32;0.00;0.00;0.62;0.00;0.00;0.62;12.87;7.40;;;23.10;36.80;;;;;;2261346;61;20827;-66
2022/09/12 06:43:18;0.00;0.00;0.62;0.00;0.00;0.62;9.60;7.40;;;23.00;36.90;;;;;;2261857;61;20754;-65
2022/09/12 06:46:06;0.00;0.00;0.62;0.00;0.00;0.62;8.33;6.70;;;23.00;37.10;;;;;;2261422;61;20388;-64
2022/09/12 06:48:51;0.00;0.00;0.62;0.00;0.00;0.62;7.97;6.73;;;22.90;37.20;;;;;;2261250;61;20354;-66
2022/09/12 06:51:36;0.00;0.00;0.62;0.00;0.00;0.62;8.77;7.73;;;22.90;37.30;;;;;;2261411;61;20393;-66
2022/09/12 06:54:22;0.00;0.00;0.62;0.00;0.00;0.62;12.07;7.30;;;22.80;37.40;;;;;;2261571;61;20358;-64
2022/09/12 06:57:07;0.00;0.00;0.62;0.00;0.00;0.62;8.77;6.77;;;22.80;38.30;;;;;;2261459;61;20758;-64
2022/09/12 06:59:53;0.00;0.00;0.62;0.00;0.00;0.62;8.30;6.83;;;22.80;37.90;;;;;;2260879;61;20741;-66
2022/09/12 07:02:39;0.00;0.00;0.62;0.00;0.00;0.62;10.47;7.17;;;22.80;37.90;;;;;;2261424;61;20408;-62
2022/09/12 07:05:23;0.00;0.00;0.62;0.00;0.00;0.62;8.97;7.93;;;22.80;37.90;;;;;;2261889;61;20470;-68
2022/09/12 07:08:08;0.00;0.00;0.62;0.00;0.00;0.62;13.13;8.37;;;22.70;38.40;;;;;;2261234;61;20412;-63
2022/09/12 07:10:53;0.00;0.00;0.62;0.00;0.00;0.62;10.30;7.70;;;22.70;37.90;;;;;;2261058;61;20397;-65
2022/09/12 07:13:39;0.00;0.00;0.62;0.00;0.00;0.62;12.90;8.27;;;22.70;38.10;;;;;;2261387;61;20444;-63
2022/09/12 07:16:24;0.00;0.00;0.62;0.00;0.00;0.62;8.27;7.47;;;22.70;38.90;;;;;;2261451;61;20473;-67
2022/09/12 07:19:11;0.00;0.00;0.62;0.00;0.00;0.62;8.00;7.10;;;22.70;38.40;;;;;;2261187;61;20409;-66
2022/09/12 07:21:56;0.00;0.00;0.62;0.00;0.00;0.62;10.73;7.07;;;22.70;38.50;;;;;;2260855;61;20640;-64
2022/09/12 07:24:41;0.00;0.00;0.62;0.00;0.00;0.62;9.23;7.10;;;22.70;38.60;;;;;;2261437;61;20409;-65
2022/09/12 07:27:26;0.00;0.00;0.62;0.00;0.00;0.62;10.37;7.20;;;22.70;38.70;;;;;;2261874;61;20354;-64
2022/09/12 07:30:11;0.00;0.00;0.62;0.00;0.00;0.62;10.10;7.57;;;22.70;38.80;;;;;;2260724;61;20397;-66
2022/09/12 07:32:56;0.00;0.00;0.62;0.00;0.00;0.62;8.07;7.00;;;22.70;38.90;;;;;;2260931;61;20412;-67
2022/09/12 07:35:43;0.00;0.00;0.62;0.00;0.00;0.62;9.63;6.70;;;22.70;39.00;;;;;;2261643;61;20377;-65
2022/09/12 07:38:27;0.00;0.00;0.62;0.00;0.00;0.62;11.60;7.80;;;22.70;39.00;;;;;;2261450;61;20381;-64
2022/09/12 07:41:12;0.00;0.00;0.62;0.00;0.00;0.62;10.47;8.67;;;22.70;39.30;;;;;;2492462;53;20563;-63
2022/09/12 07:43:59;0.00;0.00;0.62;0.00;0.00;0.62;8.30;7.20;;;22.70;39.30;;;;;;2257140;61;20402;-66
2022/09/12 07:46:44;0.00;0.00;0.62;0.00;0.00;0.62;9.80;6.83;;;22.70;39.40;;;;;;2257571;61;20371;-63
2022/09/12 07:49:29;0.00;0.00;0.62;0.00;0.00;0.62;9.83;7.20;;;22.80;39.60;;;;;;2259250;61;20400;-65
2022/09/12 07:52:15;0.00;0.00;0.62;0.00;0.00;0.62;7.90;6.20;;;22.80;39.60;;;;;;2260763;61;20377;-65
2022/09/12 07:55:00;0.00;0.00;0.62;0.00;0.00;0.62;8.30;6.93;;;22.80;39.70;;;;;;2261257;61;20561;-67
2022/09/12 07:57:48;0.00;0.00;0.62;0.00;0.00;0.62;10.50;7.23;;;22.80;39.80;;;;;;2261379;61;20374;-64
2022/09/12 08:00:35;0.00;0.00;0.62;0.00;0.00;0.62;9.90;6.70;;;22.80;39.80;;;;;;2260953;61;20408;-64
2022/09/12 08:03:20;0.00;0.00;0.62;0.00;0.00;0.62;10.57;7.47;;;22.80;39.90;;;;;;2261324;61;20437;-63
2022/09/12 08:06:06;0.00;0.00;0.62;0.00;0.00;0.62;9.97;7.43;;;22.90;40.00;;;;;;2260874;61;20536;-68
2022/09/12 08:08:55;0.00;0.00;0.62;0.00;0.00;0.62;9.00;6.60;;;22.90;40.00;;;;;;2261528;61;20604;-65
2022/09/12 08:11:39;0.00;0.00;0.62;0.00;0.00;0.62;9.70;6.27;;;22.90;40.20;;;;;;2261646;61;20361;-66
2022/09/12 08:14:24;0.00;0.00;0.62;0.00;0.00;0.62;8.07;6.47;;;23.00;40.20;;;;;;2261265;61;20358;-66
2022/09/12 08:17:09;0.00;0.00;0.62;0.00;0.00;0.62;6.40;5.70;;;23.00;40.30;;;;;;2261074;61;20389;-64
2022/09/12 08:19:55;0.00;0.00;0.62;0.00;0.00;0.62;9.10;5.90;;;23.00;40.20;;;;;;2354760;53;20458;-64
2022/09/12 08:22:42;0.00;0.00;0.62;0.00;0.00;0.62;6.83;6.13;;;23.10;40.20;;;;;;2261243;61;20738;-67
2022/09/12 08:25:28;0.00;0.00;0.62;0.00;0.00;0.62;6.70;5.13;;;23.10;40.20;;;;;;2261385;61;20852;-63
2022/09/12 08:28:13;0.00;0.00;0.62;0.00;0.00;0.62;8.40;6.10;;;23.20;40.30;;;;;;2260968;61;20354;-62
2022/09/12 08:31:00;0.00;0.00;0.62;0.00;0.00;0.62;6.20;5.10;;;23.20;40.20;;;;;;2261330;61;20603;-63
2022/09/12 08:33:45;0.00;0.00;0.62;0.00;0.00;0.62;4.37;3.93;;;23.30;40.20;;;;;;2261416;61;20777;-64
2022/09/12 08:36:31;0.00;0.00;0.62;0.00;0.00;0.62;5.90;4.10;;;23.30;40.00;;;;;;2260933;61;20393;-64
2022/09/12 08:39:16;0.00;0.00;0.62;0.00;0.00;0.62;4.67;4.20;;;23.40;40.00;;;;;;2260733;61;20405;-63
2022/09/12 08:42:05;0.00;0.00;0.62;0.00;0.00;0.62;4.87;4.07;;;23.40;39.90;;;;;;2261200;61;20385;-63
2022/09/12 08:45:16;0.00;0.00;0.62;0.00;0.00;0.62;8.20;5.10;;;23.50;39.90;;;;;;2261251;61;20378;-60
2022/09/12 08:48:03;0.00;0.00;0.62;0.00;0.00;0.62;4.40;3.80;;;23.50;39.70;;;;;;2261519;61;20381;-63
2022/09/12 08:50:48;0.00;0.00;0.62;0.00;0.00;0.62;7.40;4.07;;;23.60;39.60;;;;;;2260424;61;20381;-62
2022/09/12 08:53:35;0.00;0.00;0.62;0.00;0.00;0.62;5.03;3.60;;;23.60;39.50;;;;;;2261147;61;20401;-62
2022/09/12 08:56:21;0.00;0.00;0.62;0.00;0.00;0.62;5.00;4.10;;;23.70;39.50;;;;;;2261418;61;20401;-61
2022/09/12 08:59:09;0.00;0.00;0.62;0.00;0.00;0.62;4.60;3.93;;;23.70;39.40;;;;;;2260582;61;20414;-62
2022/09/12 09:01:58;0.00;0.00;0.62;0.00;0.00;0.62;4.00;3.60;;;23.70;39.30;;;;;;2260872;61;20754;-62
2022/09/12 09:04:49;0.00;0.00;0.62;0.00;0.00;0.62;4.80;4.30;;;23.80;39.20;;;;;;2492345;53;20401;-61
2022/09/12 09:07:59;0.00;0.00;0.62;0.00;0.00;0.62;5.57;4.00;;;23.80;39.10;;;;;;2257266;61;20370;-61
2022/09/12 09:10:52;0.00;0.00;0.62;0.00;0.00;0.62;5.17;3.60;;;23.90;39.00;;;;;;2262503;61;20717;-62
2022/09/12 09:16:57;0.00;0.00;0.62;0.00;0.00;0.62;4.33;3.53;;;24.00;39.00;;;;;;2261190;61;20358;-62
2022/09/12 09:19:50;0.00;0.00;0.62;0.00;0.00;0.62;3.73;3.30;;;24.00;39.00;;;;;;2262600;61;20446;-61
2022/09/12 09:22:42;0.00;0.00;0.62;0.00;0.00;0.62;4.37;3.53;;;24.10;39.10;;;;;;2265635;61;20377;-63
2022/09/12 09:25:41;0.00;0.00;0.62;0.00;0.00;0.62;4.17;3.77;;;24.10;39.10;;;;;;2265625;61;20353;-63
2022/09/12 09:28:36;0.00;0.00;0.62;0.00;0.00;0.62;4.10;3.33;;;24.10;39.10;;;;;;2265105;61;20611;-63
2022/09/12 09:31:24;0.00;0.00;0.62;0.00;0.00;0.62;4.77;4.00;;;24.20;39.20;;;;;;2261730;61;20370;-62
2022/09/12 09:34:15;0.00;0.00;0.62;0.00;0.00;0.62;4.20;3.73;;;24.20;39.00;;;;;;2261733;61;20759;-61
2022/09/12 09:37:12;0.00;0.00;0.62;0.00;0.00;0.62;4.30;3.90;;;24.30;38.90;;;;;;2262017;61;20357;-62
2022/09/12 09:40:10;0.00;0.00;0.62;0.00;0.00;0.62;4.60;3.87;;;24.30;38.80;;;;;;2261610;61;20428;-64
2022/09/12 09:43:04;0.00;0.00;0.62;0.00;0.00;0.62;4.57;3.63;;;24.40;38.70;;;;;;2260893;61;20450;-62
2022/09/12 09:45:50;0.00;0.00;0.62;0.00;0.00;0.62;4.57;3.47;;;24.40;38.60;;;;;;2261727;61;20409;-63
2022/09/12 09:48:39;0.00;0.00;0.62;0.00;0.00;0.62;4.73;3.50;;;24.50;38.60;;;;;;2261622;61;20586;-61
2022/09/12 09:51:32;0.00;0.00;0.62;0.00;0.00;0.62;4.80;3.53;;;24.50;38.50;;;;;;2261703;61;20354;-62
2022/09/12 09:54:22;0.00;0.00;0.62;0.00;0.00;0.62;5.00;3.90;;;24.50;38.40;;;;;;2261614;61;20347;-62
2022/09/12 09:57:39;0.00;0.00;0.62;0.00;0.00;0.62;4.67;3.80;;;24.60;38.40;;;;;;2261522;61;20430;-63
2022/09/12 10:00:30;0.00;0.00;0.62;0.00;0.00;0.62;5.23;3.57;;;24.60;38.30;;;;;;2264725;61;20643;-61
2022/09/12 10:03:31;0.00;0.00;0.62;0.00;0.00;0.62;5.23;3.73;;;24.60;38.20;;;;;;2263956;61;20752;-64
2022/09/12 10:06:31;0.00;0.00;0.62;0.00;0.00;0.62;3.40;3.03;;;24.70;38.20;;;;;;2261206;61;20365;-62
2022/09/12 10:09:20;0.00;0.00;0.62;0.00;0.00;0.62;3.40;3.10;;;24.70;38.20;;;;;;2261420;61;20401;-61
2022/09/12 10:12:25;0.00;0.00;0.62;0.00;0.00;0.62;3.67;3.23;;;24.70;38.00;;;;;;2429883;53;20389;-62
2022/09/12 10:15:18;0.00;0.00;0.62;0.00;0.00;0.62;4.17;3.30;;;24.80;37.90;;;;;;2257138;61;20402;-63
2022/09/12 10:18:03;0.00;0.00;0.62;0.00;0.00;0.62;6.23;3.40;;;24.80;37.80;;;;;;2259079;61;20757;-62
2022/09/12 10:20:48;0.00;0.00;0.62;0.00;0.00;0.62;5.27;3.70;;;24.80;37.70;;;;;;2261546;61;20396;-61
2022/09/12 10:23:39;0.00;0.00;0.62;0.00;0.00;0.62;4.43;3.00;;;24.80;37.60;;;;;;2261734;61;20397;-62
2022/09/12 10:26:24;0.00;0.00;0.62;0.00;0.00;0.62;3.30;3.00;;;24.90;37.80;;;;;;2261560;61;20630;-64
2022/09/12 10:29:17;0.00;0.00;0.62;0.00;0.00;0.62;3.57;3.10;;;25.00;37.70;;;;;;2261315;61;20384;-62
2022/09/12 10:32:07;0.00;0.00;0.62;0.00;0.00;0.62;3.10;2.70;;;25.00;37.60;;;;;;2261917;61;20425;-64
2022/09/12 10:34:55;0.00;0.00;0.62;0.00;0.00;0.62;4.77;3.20;;;25.00;37.60;;;;;;2261065;61;20558;-62
2022/09/12 10:37:48;0.00;0.00;0.62;0.00;0.00;0.62;3.87;3.10;;;25.00;37.40;;;;;;2261680;61;20644;-61
2022/09/12 10:40:39;0.00;0.00;0.62;0.00;0.00;0.62;3.57;2.90;;;25.10;37.20;;;;;;2264671;61;20485;-61
2022/09/12 10:43:28;0.00;0.00;0.62;0.00;0.00;0.62;6.30;3.50;;;25.10;37.10;;;;;;2264860;61;20377;-62
2022/09/12 10:46:28;0.00;0.00;0.62;0.00;0.00;0.62;3.87;3.10;;;25.10;37.10;;;;;;2261586;61;20370;-63
2022/09/12 10:49:27;0.00;0.00;0.62;0.00;0.00;0.62;3.30;3.00;;;25.20;37.10;;;;;;2260301;61;20462;-63
2022/09/12 10:52:20;0.00;0.00;0.62;0.00;0.00;0.62;4.03;3.20;;;25.20;37.10;;;;;;2261573;61;20444;-63
2022/09/12 10:55:12;0.00;0.00;0.62;0.00;0.00;0.62;3.13;2.80;;;25.20;37.00;;;;;;2261511;61;20386;-63
2022/09/12 10:58:25;0.00;0.00;0.62;0.00;0.00;0.62;3.57;2.97;;;25.30;37.00;;;;;;2261469;61;20428;-65
2022/09/12 11:01:23;0.00;0.00;0.62;0.00;0.00;0.62;4.23;3.27;;;25.30;36.80;;;;;;2497677;53;20358;-64
2022/09/12 11:04:27;0.00;0.00;0.62;0.00;0.00;0.62;3.53;2.73;;;25.30;36.70;;;;;;2261088;61;20482;-64
2022/09/12 11:07:35;0.00;0.00;0.62;0.00;0.00;0.62;3.47;3.00;;;25.40;36.50;;;;;;2261621;61;20397;-65
2022/09/12 11:10:30;0.00;0.00;0.62;0.00;0.00;0.62;3.70;3.40;;;25.40;37.00;;;;;;2261140;61;20370;-62
2022/09/12 11:13:31;0.00;0.00;0.62;0.00;0.00;0.62;3.73;2.90;;;25.40;36.10;;;;;;2261526;61;20421;-64